Time;durP1;ratioP1;P1;durP2;ratioP2;P2;SDS_P1;SDS_P2;PMS_P1;PMS_P2;Temp;Humidity;BMP_temperature;BMP_pressure;BME280_temperature;BME280_humidity;BME280_pressure;Samples;Min_cycle;Max_cycle;Signal;HPM_P1;HPM_P2
2024/02/15 05:31:19;;;;;;;0.10;0.10;;;12.60;85.50;;;;;;6152326;23;19928;-76
2024/02/15 05:33:47;;;;;;;0.10;0.10;;;12.60;85.40;;;;;;6131059;23;20010;-77
2024/02/15 05:36:20;;;;;;;0.10;0.10;;;12.50;85.40;;;;;;6159718;23;20307;-77
2024/02/15 05:38:49;;;;;;;0.10;0.10;;;12.50;85.50;;;;;;6159464;23;19998;-76
2024/02/15 05:41:16;;;;;;;0.10;0.10;;;12.50;85.40;;;;;;6159570;23;19997;-76
2024/02/15 05:43:42;;;;;;;0.10;0.10;;;12.60;85.30;;;;;;6158948;23;20005;-78
2024/02/15 05:46:09;;;;;;;0.10;0.10;;;12.50;85.30;;;;;;6131467;23;20009;-78
2024/02/15 05:48:36;;;;;;;0.10;0.10;;;12.50;85.30;;;;;;6133348;23;20056;-78
2024/02/15 05:51:03;;;;;;;0.10;0.10;;;12.50;85.30;;;;;;6133363;23;20010;-79
2024/02/15 05:53:29;;;;;;;0.03;0.03;;;12.50;85.20;;;;;;6159662;23;20001;-79
2024/02/15 05:55:57;;;;;;;0.10;0.10;;;12.50;85.20;;;;;;6158802;23;19998;-79
2024/02/15 05:58:23;;;;;;;0.10;0.10;;;12.50;85.30;;;;;;6133122;23;20001;-78
2024/02/15 06:00:53;;;;;;;0.10;0.10;;;12.50;85.20;;;;;;6158042;23;20013;-80
2024/02/15 06:03:22;;;;;;;0.10;0.10;;;12.50;85.10;;;;;;6131782;23;20013;-77
2024/02/15 06:05:48;;;;;;;0.10;0.10;;;12.50;85.00;;;;;;6132988;23;20005;-77
2024/02/15 06:08:14;;;;;;;0.10;0.10;;;12.50;84.90;;;;;;6158981;23;20028;-78
2024/02/15 06:10:40;;;;;;;0.10;0.10;;;12.50;84.90;;;;;;6158898;23;20009;-77
2024/02/15 06:13:08;;;;;;;0.10;0.10;;;12.50;84.70;;;;;;6158780;23;20002;-78
2024/02/15 06:15:34;;;;;;;0.10;0.10;;;12.50;84.70;;;;;;6158920;23;19998;-77
2024/02/15 06:18:00;;;;;;;0.10;0.10;;;12.50;84.70;;;;;;6158944;23;20381;-78
2024/02/15 06:20:29;;;;;;;0.10;0.10;;;12.50;84.60;;;;;;6158909;23;20465;-75
2024/02/15 06:22:55;;;;;;;0.10;0.10;;;12.50;84.60;;;;;;6159209;23;20009;-78
2024/02/15 06:25:21;;;;;;;0.10;0.10;;;12.40;84.50;;;;;;6133064;23;20080;-78
2024/02/15 06:27:47;;;;;;;0.10;0.10;;;12.50;84.70;;;;;;6158627;23;20006;-78
2024/02/15 06:41:34;;;;;;;0.10;0.10;;;12.30;84.70;;;;;;6158940;23;20012;-77
2024/02/15 06:43:59;;;;;;;0.10;0.10;;;12.30;84.70;;;;;;6158732;23;20005;-78
2024/02/15 06:46:25;;;;;;;0.10;0.10;;;12.30;84.70;;;;;;6158778;23;20008;-76
2024/02/15 06:48:52;;;;;;;0.10;0.10;;;12.30;84.70;;;;;;6157388;23;20437;-78
2024/02/15 06:51:18;;;;;;;0.10;0.10;;;12.30;84.70;;;;;;6157022;23;20093;-77
2024/02/15 06:53:44;;;;;;;0.10;0.10;;;12.30;84.80;;;;;;6157441;23;20001;-77
2024/02/15 06:56:10;;;;;;;0.10;0.10;;;12.30;84.80;;;;;;6158459;23;20496;-78
2024/02/15 06:58:36;;;;;;;0.10;0.10;;;12.30;84.60;;;;;;6158225;23;20006;-77
2024/02/15 07:01:02;;;;;;;0.10;0.10;;;12.30;84.70;;;;;;6159106;23;19998;-78
2024/02/15 07:03:32;;;;;;;0.10;0.10;;;12.30;84.60;;;;;;6158675;23;20008;-78
2024/02/15 07:05:58;;;;;;;0.10;0.10;;;12.30;84.70;;;;;;6158426;23;20033;-78
2024/02/15 07:08:26;;;;;;;0.10;0.10;;;12.30;84.70;;;;;;6158333;23;20346;-77
2024/02/15 07:10:52;;;;;;;0.10;0.10;;;12.30;84.80;;;;;;6158668;23;20097;-78
2024/02/15 07:13:18;;;;;;;0.10;0.10;;;12.30;84.70;;;;;;6158839;23;20001;-78
2024/02/15 07:15:45;;;;;;;0.10;0.10;;;12.30;84.70;;;;;;6160553;23;20002;-78
2024/02/15 07:18:16;;;;;;;0.10;0.10;;;12.20;84.50;;;;;;6161156;23;20077;-78
2024/02/15 07:20:41;;;;;;;0.10;0.10;;;12.20;84.50;;;;;;6160950;23;20001;-78
2024/02/15 07:23:07;;;;;;;0.10;0.10;;;12.30;84.50;;;;;;6134623;23;20005;-77
2024/02/15 07:25:33;;;;;;;0.10;0.10;;;12.30;84.40;;;;;;6161081;23;20711;-78
2024/02/15 07:27:58;;;;;;;0.10;0.10;;;12.30;84.40;;;;;;6160670;23;20002;-78
2024/02/15 07:30:24;;;;;;;0.10;0.10;;;12.30;84.30;;;;;;6160650;23;20006;-78
2024/02/15 07:32:50;;;;;;;0.10;0.10;;;12.30;84.10;;;;;;6160598;23;20005;-78
2024/02/15 07:35:17;;;;;;;0.10;0.10;;;12.30;84.10;;;;;;6161071;23;19997;-78
2024/02/15 07:37:57;;;;;;;0.10;0.10;;;12.30;83.90;;;;;;6160452;23;20002;-78
2024/02/15 07:40:27;;;;;;;0.10;0.10;;;12.30;83.80;;;;;;6135206;23;20080;-78
2024/02/15 07:42:53;;;;;;;0.10;0.10;;;12.40;83.70;;;;;;6160627;23;20441;-78
2024/02/15 07:45:18;;;;;;;0.10;0.10;;;12.40;83.50;;;;;;6134872;23;20029;-78
2024/02/15 07:47:45;;;;;;;0.10;0.10;;;12.40;83.30;;;;;;6160581;23;20005;-77
2024/02/15 07:50:12;;;;;;;0.10;0.10;;;12.50;83.20;;;;;;6160375;23;20060;-77
2024/02/15 07:52:38;;;;;;;0.10;0.10;;;12.50;83.10;;;;;;6160767;23;20002;-77
2024/02/15 07:55:08;;;;;;;0.10;0.10;;;12.50;83.00;;;;;;6160845;23;20005;-78
2024/02/15 07:57:34;;;;;;;0.10;0.10;;;12.50;82.80;;;;;;6160533;23;20073;-77
2024/02/15 08:00:00;;;;;;;0.10;0.10;;;12.60;82.80;;;;;;6160420;23;20423;-77
2024/02/15 08:02:28;;;;;;;0.10;0.10;;;12.70;82.50;;;;;;6160507;23;20070;-78
2024/02/15 08:04:54;;;;;;;0.10;0.10;;;12.70;82.50;;;;;;6160237;23;20092;-77
2024/02/15 08:07:20;;;;;;;0.10;0.10;;;12.70;82.10;;;;;;6160500;23;20001;-78
2024/02/15 08:09:50;;;;;;;0.10;0.10;;;12.80;82.20;;;;;;6134455;23;20075;-78
2024/02/15 08:12:16;;;;;;;0.10;0.10;;;12.80;82.00;;;;;;6160804;23;20002;-78
2024/02/15 08:14:42;;;;;;;0.10;0.10;;;12.80;82.00;;;;;;6160238;23;20008;-78
2024/02/15 08:17:08;;;;;;;0.10;0.10;;;12.80;81.80;;;;;;6134509;23;20327;-78
2024/02/15 08:19:34;;;;;;;0.10;0.10;;;12.90;81.70;;;;;;6160687;23;20008;-78
2024/02/15 08:22:05;;;;;;;0.10;0.10;;;12.90;81.60;;;;;;6160106;23;20371;-77
2024/02/15 08:24:31;;;;;;;0.10;0.10;;;12.90;81.40;;;;;;6160474;23;20080;-79
2024/02/15 08:26:59;;;;;;;0.10;0.10;;;13.00;81.40;;;;;;6134053;23;20005;-79
2024/02/15 08:29:24;;;;;;;0.10;0.10;;;13.00;81.20;;;;;;6159868;23;20040;-77
2024/02/15 08:31:50;;;;;;;0.10;0.10;;;13.00;81.20;;;;;;6160178;23;20014;-79
2024/02/15 08:34:18;;;;;;;0.10;0.10;;;13.00;81.10;;;;;;6159740;23;20001;-79
2024/02/15 08:36:44;;;;;;;0.10;0.10;;;12.90;81.30;;;;;;6160483;23;20469;-77
2024/02/15 08:39:11;;;;;;;0.10;0.10;;;12.90;81.30;;;;;;6160463;23;20002;-79
2024/02/15 08:41:38;;;;;;;0.10;0.10;;;13.00;81.30;;;;;;6160200;23;20029;-79
2024/02/15 08:44:09;;;;;;;0.10;0.10;;;13.00;81.10;;;;;;6160051;23;20055;-79
2024/02/15 08:46:36;;;;;;;0.10;0.10;;;13.00;80.90;;;;;;6160402;23;20028;-79
2024/02/15 08:49:02;;;;;;;0.10;0.10;;;13.20;80.90;;;;;;6160179;23;20006;-79
2024/02/15 08:51:32;;;;;;;0.10;0.10;;;13.20;80.70;;;;;;6160212;23;20001;-79
2024/02/15 08:53:59;;;;;;;0.10;0.10;;;13.20;80.30;;;;;;6134108;23;20010;-79
2024/02/15 08:56:25;;;;;;;0.10;0.10;;;13.20;80.50;;;;;;6160074;23;19997;-79
2024/02/15 08:58:51;;;;;;;0.10;0.10;;;13.30;80.50;;;;;;6159993;23;20002;-79
2024/02/15 09:01:16;;;;;;;0.10;0.10;;;13.30;80.20;;;;;;6159779;23;20040;-79
2024/02/15 09:03:42;;;;;;;0.10;0.10;;;13.40;80.10;;;;;;6134280;23;20095;-79
2024/02/15 09:06:08;;;;;;;0.10;0.10;;;13.40;80.10;;;;;;6160138;23;20056;-78
2024/02/15 09:08:34;;;;;;;0.10;0.10;;;13.50;80.00;;;;;;6159675;23;20493;-79
2024/02/15 09:10:59;;;;;;;0.10;0.10;;;13.50;79.90;;;;;;6133997;23;21244;-78
2024/02/15 09:13:25;;;;;;;0.10;0.10;;;13.60;79.60;;;;;;6134310;23;20442;-79
2024/02/15 09:15:51;;;;;;;0.10;0.10;;;13.60;79.50;;;;;;6159860;23;19998;-78
2024/02/15 09:18:22;;;;;;;0.10;0.10;;;13.60;79.30;;;;;;6159887;23;20048;-79
2024/02/15 09:20:48;;;;;;;0.10;0.10;;;13.60;79.40;;;;;;6159492;23;20079;-79
2024/02/15 09:23:14;;;;;;;0.10;0.10;;;13.60;79.60;;;;;;6159946;23;20053;-78
2024/02/15 09:25:43;;;;;;;0.10;0.10;;;13.60;79.50;;;;;;6133606;23;20013;-79
2024/02/15 09:28:09;;;;;;;0.10;0.10;;;13.70;79.10;;;;;;6158931;23;20001;-79
2024/02/15 09:30:35;;;;;;;0.10;0.10;;;13.70;79.40;;;;;;6159799;23;20442;-78
2024/02/15 09:33:04;;;;;;;0.20;0.20;;;13.80;79.00;;;;;;6159867;23;20005;-79
2024/02/15 09:35:31;;;;;;;0.20;0.20;;;14.00;78.70;;;;;;6159408;23;20001;-79
2024/02/15 09:37:56;;;;;;;0.30;0.30;;;14.20;78.00;;;;;;6133244;23;20002;-79
2024/02/15 09:40:26;;;;;;;0.20;0.20;;;14.50;77.40;;;;;;6159327;23;20612;-79
2024/02/15 09:42:52;;;;;;;0.30;0.30;;;14.60;76.40;;;;;;6133357;23;20005;-79
2024/02/15 09:45:20;;;;;;;0.20;0.20;;;14.80;76.20;;;;;;6159798;23;20060;-78
2024/02/15 09:47:49;;;;;;;0.30;0.30;;;14.90;75.60;;;;;;6133266;23;20315;-79
2024/02/15 09:50:16;;;;;;;1.30;1.20;;;15.00;76.00;;;;;;6159329;23;20002;-79
2024/02/15 09:52:53;;;;;;;1.60;1.50;;;15.40;74.20;;;;;;6159923;23;20009;-78
2024/02/15 09:55:22;;;;;;;0.70;0.70;;;16.20;73.10;;;;;;6133440;23;20084;-79
2024/02/15 09:57:50;;;;;;;0.80;0.80;;;16.40;71.20;;;;;;6159485;23;20558;-77
2024/02/15 10:00:16;;;;;;;2.53;2.33;;;16.30;70.90;;;;;;6158903;23;20001;-77
2024/02/15 10:02:48;;;;;;;0.40;0.40;;;16.70;70.30;;;;;;6160105;23;20001;-77
2024/02/15 10:05:13;;;;;;;0.50;0.50;;;16.90;69.30;;;;;;6159096;23;20006;-77
2024/02/15 10:07:40;;;;;;;0.20;0.20;;;16.60;69.60;;;;;;6159290;23;20001;-77
2024/02/15 10:10:22;;;;;;;0.20;0.20;;;16.30;70.80;;;;;;6159594;23;20001;-77
2024/02/15 10:12:51;;;;;;;0.10;0.10;;;15.90;71.20;;;;;;6158849;23;20005;-77
2024/02/15 10:15:36;;;;;;;0.10;0.10;;;15.70;72.40;;;;;;6159878;23;20056;-77
2024/02/15 10:18:04;;;;;;;0.10;0.10;;;15.70;72.90;;;;;;6158662;23;19997;-77
2024/02/15 10:20:31;;;;;;;0.10;0.10;;;15.60;73.10;;;;;;6159310;23;19998;-77
2024/02/15 10:22:59;;;;;;;0.10;0.10;;;15.40;73.40;;;;;;6159555;23;20065;-77
2024/02/15 10:25:29;;;;;;;0.10;0.10;;;15.40;73.30;;;;;;6132910;23;20017;-77
2024/02/15 10:28:19;;;;;;;0.10;0.10;;;15.40;73.90;;;;;;6158979;23;20002;-77
2024/02/15 10:30:46;;;;;;;0.10;0.10;;;15.30;74.10;;;;;;6158905;23;20016;-77
2024/02/15 10:33:29;;;;;;;0.10;0.10;;;15.40;74.40;;;;;;6133709;23;20060;-77
2024/02/15 10:36:08;;;;;;;0.10;0.10;;;15.50;74.60;;;;;;6159223;23;19998;-77
2024/02/15 10:38:33;;;;;;;0.10;0.10;;;15.40;74.20;;;;;;6158505;23;20446;-77
2024/02/15 10:41:07;;;;;;;0.10;0.10;;;15.40;74.40;;;;;;6159511;23;20025;-77
2024/02/15 10:43:39;;;;;;;0.10;0.10;;;15.30;74.90;;;;;;6159533;23;20334;-78
2024/02/15 10:46:09;;;;;;;0.10;0.10;;;15.30;74.90;;;;;;6158703;23;20001;-78
2024/02/15 10:48:35;;;;;;;0.10;0.10;;;15.30;75.40;;;;;;6159299;23;20008;-77
2024/02/15 10:51:03;;;;;;;0.10;0.10;;;15.40;75.00;;;;;;6158899;23;20002;-78
2024/02/15 10:53:33;;;;;;;0.10;0.10;;;15.50;75.20;;;;;;6158878;23;20010;-77
2024/02/15 10:56:26;;;;;;;0.10;0.10;;;15.60;74.60;;;;;;6132683;23;20006;-77
2024/02/15 10:59:00;;;;;;;0.10;0.10;;;15.80;74.50;;;;;;6158874;23;20502;-77
2024/02/15 11:01:29;;;;;;;0.10;0.10;;;15.90;74.20;;;;;;6158690;23;20485;-77
2024/02/15 11:04:01;;;;;;;0.10;0.10;;;16.00;72.90;;;;;;6159052;23;20085;-77
2024/02/15 11:06:29;;;;;;;0.10;0.10;;;16.00;73.00;;;;;;6158624;23;20005;-77
2024/02/15 11:08:56;;;;;;;0.10;0.10;;;16.00;72.50;;;;;;6159274;23;20033;-77
2024/02/15 11:11:22;;;;;;;0.10;0.10;;;15.90;72.50;;;;;;6158748;23;20085;-77
2024/02/15 11:13:48;;;;;;;0.10;0.10;;;15.90;72.60;;;;;;6158745;23;20064;-77
2024/02/15 11:16:43;;;;;;;0.20;0.20;;;16.00;72.60;;;;;;6132069;23;20009;-77
2024/02/15 11:19:10;;;;;;;0.15;0.15;;;16.10;72.60;;;;;;6158860;23;20012;-76
2024/02/15 11:21:57;;;;;;;0.10;0.10;;;16.30;72.70;;;;;;6158706;23;20020;-79
2024/02/15 11:24:35;;;;;;;0.10;0.10;;;16.50;72.10;;;;;;6159076;23;20002;-79
2024/02/15 11:27:03;;;;;;;0.10;0.10;;;16.50;71.40;;;;;;6159153;23;20010;-79
2024/02/15 11:30:10;;;;;;;0.10;0.10;;;16.60;71.30;;;;;;6132684;23;20010;-79
2024/02/15 11:32:39;;;;;;;0.10;0.10;;;16.60;71.30;;;;;;6158141;23;20021;-79
2024/02/15 11:35:13;;;;;;;0.10;0.10;;;16.70;71.70;;;;;;6158875;23;20434;-78
2024/02/15 11:37:55;;;;;;;0.10;0.10;;;16.70;70.70;;;;;;6132183;23;20002;-79
2024/02/15 11:40:29;;;;;;;0.10;0.10;;;16.70;71.20;;;;;;6159201;23;20029;-77
2024/02/15 11:42:58;;;;;;;0.20;0.20;;;16.80;70.70;;;;;;6158197;23;20015;-77
2024/02/15 11:45:25;;;;;;;0.10;0.10;;;16.70;70.60;;;;;;6159462;23;20337;-81
2024/02/15 11:47:53;;;;;;;0.10;0.10;;;16.70;71.20;;;;;;6158934;23;20343;-79
2024/02/15 11:50:20;;;;;;;0.10;0.10;;;16.70;71.30;;;;;;6132779;23;20040;-77
2024/02/15 11:52:48;;;;;;;0.10;0.10;;;16.50;71.10;;;;;;6158708;23;20501;-78
2024/02/15 11:55:19;;;;;;;0.10;0.10;;;16.60;71.30;;;;;;6158598;23;20005;-75
2024/02/15 12:19:56;;;;;;;0.10;0.10;;;16.90;71.40;;;;;;6160568;23;20036;-84
2024/02/15 12:22:35;;;;;;;0.10;0.10;;;16.80;71.70;;;;;;6134137;23;20005;-84
2024/02/15 12:25:09;;;;;;;0.10;0.10;;;16.60;72.00;;;;;;6160529;23;20056;-86
2024/02/15 12:27:35;;;;;;;0.10;0.10;;;16.60;72.50;;;;;;6133998;23;20001;-83
2024/02/15 12:30:01;;;;;;;0.10;0.10;;;16.60;73.00;;;;;;6160386;23;20008;-84
2024/02/15 12:32:28;;;;;;;0.10;0.10;;;16.60;72.20;;;;;;6159883;23;20817;-84
2024/02/15 12:35:10;;;;;;;0.10;0.10;;;16.80;72.20;;;;;;6134363;23;20072;-82
2024/02/15 12:37:36;;;;;;;0.10;0.10;;;16.90;72.40;;;;;;6134051;23;20029;-83
2024/02/15 12:40:18;;;;;;;0.10;0.10;;;16.90;72.40;;;;;;6160550;23;20330;-81
2024/02/15 12:42:44;;;;;;;0.10;0.10;;;17.00;72.20;;;;;;6159905;23;20005;-87
2024/02/15 12:45:20;;;;;;;0.10;0.10;;;17.00;72.20;;;;;;6160466;23;20006;-85
2024/02/15 12:47:52;;;;;;;0.10;0.10;;;17.00;72.10;;;;;;6134095;23;20007;-83
2024/02/15 12:50:21;;;;;;;0.10;0.10;;;17.00;72.00;;;;;;6159891;23;20013;-84
2024/02/15 12:52:47;;;;;;;0.10;0.10;;;17.10;72.30;;;;;;6160122;23;20005;-81
2024/02/15 12:55:17;;;;;;;0.10;0.10;;;17.10;71.90;;;;;;6133816;23;20051;-85
2024/02/15 12:57:48;;;;;;;0.10;0.10;;;17.00;72.10;;;;;;6159926;23;20287;-86
2024/02/15 13:00:17;;;;;;;0.10;0.10;;;17.00;72.40;;;;;;6133889;23;20045;-87
2024/02/15 13:02:52;;;;;;;0.10;0.10;;;16.90;72.40;;;;;;6133765;23;20009;-83
2024/02/15 13:05:19;;;;;;;0.10;0.10;;;16.90;72.40;;;;;;6134723;23;20005;-81
2024/02/15 13:07:52;;;;;;;0.10;0.10;;;16.80;72.60;;;;;;6133927;23;20112;-81
2024/02/15 13:10:18;;;;;;;0.10;0.10;;;16.80;72.90;;;;;;6160064;23;20080;-80
2024/02/15 13:12:47;;;;;;;0.10;0.10;;;16.80;72.50;;;;;;6133423;23;20060;-80
2024/02/15 13:15:15;;;;;;;0.10;0.10;;;16.90;72.10;;;;;;6160256;23;20029;-80
2024/02/15 13:17:48;;;;;;;0.10;0.10;;;16.90;72.70;;;;;;6159814;23;20056;-80
2024/02/15 13:20:15;;;;;;;0.10;0.10;;;17.00;72.60;;;;;;6159688;23;20008;-79
2024/02/15 13:22:43;;;;;;;0.10;0.10;;;17.10;72.70;;;;;;6134010;23;20016;-81
2024/02/15 13:25:10;;;;;;;0.10;0.10;;;17.20;72.30;;;;;;6133829;23;20005;-80
2024/02/15 13:27:39;;;;;;;0.10;0.10;;;17.20;72.50;;;;;;6159694;23;20089;-81
2024/02/15 13:30:08;;;;;;;0.10;0.10;;;17.20;73.10;;;;;;6134123;23;20044;-80
2024/02/15 13:32:38;;;;;;;0.10;0.10;;;17.30;72.70;;;;;;6159537;23;20013;-81
2024/02/15 13:35:12;;;;;;;0.10;0.10;;;17.40;72.70;;;;;;6159852;23;20386;-81
2024/02/15 13:37:47;;;;;;;;;;;17.40;72.50;;;;;;6159764;23;20052;-81
2024/02/15 13:40:16;;;;;;;0.10;0.10;;;17.30;71.80;;;;;;6133810;23;19904;-81
2024/02/15 13:42:52;;;;;;;0.10;0.10;;;17.30;72.10;;;;;;6159346;23;20002;-81
2024/02/15 13:45:23;;;;;;;0.10;0.10;;;17.30;72.30;;;;;;6160054;23;20001;-80
2024/02/15 13:47:50;;;;;;;0.10;0.10;;;17.20;72.10;;;;;;6159130;23;20001;-81
2024/02/15 13:50:17;;;;;;;0.10;0.10;;;17.30;72.60;;;;;;6159569;23;20005;-80
2024/02/15 13:52:44;;;;;;;0.10;0.10;;;17.30;72.40;;;;;;6159553;23;20060;-81
2024/02/15 13:55:14;;;;;;;0.10;0.10;;;17.30;72.80;;;;;;6159344;23;19998;-79
2024/02/15 13:57:41;;;;;;;0.10;0.10;;;17.40;72.70;;;;;;6133272;23;20457;-79
2024/02/15 14:00:20;;;;;;;0.10;0.10;;;17.50;72.80;;;;;;6159487;23;20001;-81
2024/02/15 14:02:53;;;;;;;0.10;0.10;;;17.70;72.20;;;;;;6159264;23;20012;-80
2024/02/15 14:05:20;;;;;;;0.10;0.10;;;17.70;72.10;;;;;;6159399;23;20007;-77
2024/02/15 14:07:49;;;;;;;0.10;0.10;;;17.80;72.10;;;;;;6159019;23;20493;-80
2024/02/15 14:10:15;;;;;;;0.10;0.10;;;17.90;71.50;;;;;;6133789;23;20513;-81
2024/02/15 14:12:41;;;;;;;0.10;0.10;;;17.90;71.70;;;;;;6158742;23;20068;-80
2024/02/15 14:15:06;;;;;;;0.10;0.10;;;17.90;71.80;;;;;;6159426;23;19993;-80
2024/02/15 14:17:32;;;;;;;0.10;0.10;;;17.80;71.70;;;;;;6159052;23;19998;-81
2024/02/15 14:20:01;;;;;;;0.10;0.10;;;17.80;71.80;;;;;;6159362;23;20002;-81
2024/02/15 14:22:29;;;;;;;0.10;0.10;;;17.70;72.00;;;;;;6159664;23;20025;-80
2024/02/15 14:24:55;;;;;;;0.10;0.10;;;17.70;72.10;;;;;;6159065;23;20002;-80
2024/02/15 14:27:21;;;;;;;0.10;0.10;;;17.60;72.00;;;;;;6159127;23;20005;-80
2024/02/15 14:33:00;;;;;;;0.10;0.10;;;17.60;72.80;;;;;;6159217;23;20008;-81
2024/02/15 14:35:16;;;;;;;0.10;0.10;;;17.50;72.10;;;;;;6159156;23;20033;-81
2024/02/15 14:37:43;;;;;;;0.10;0.10;;;17.60;72.60;;;;;;6158923;23;19997;-80
2024/02/15 14:40:10;;;;;;;0.10;0.10;;;17.70;72.10;;;;;;6133165;23;20001;-80
2024/02/15 14:42:37;;;;;;;0.10;0.10;;;17.80;71.70;;;;;;6158771;23;20516;-81
2024/02/15 14:45:04;;;;;;;0.08;0.08;;;17.70;71.00;;;;;;6133263;23;20040;-81
2024/02/15 14:47:29;;;;;;;0.10;0.10;;;17.70;71.10;;;;;;6159455;23;20446;-81
2024/02/15 14:49:55;;;;;;;0.10;0.10;;;17.60;71.10;;;;;;6158688;23;20028;-81
2024/02/15 14:52:22;;;;;;;0.10;0.10;;;17.60;71.10;;;;;;6133394;23;20079;-81
2024/02/15 14:54:47;;;;;;;0.10;0.10;;;17.60;71.30;;;;;;6158724;23;20002;-81
2024/02/15 14:57:13;;;;;;;0.10;0.10;;;17.70;71.50;;;;;;6159162;23;20002;-81
2024/02/15 14:59:40;;;;;;;0.10;0.10;;;17.80;71.20;;;;;;6158951;23;19997;-80
2024/02/15 15:02:08;;;;;;;0.10;0.10;;;17.80;70.80;;;;;;6132918;23;20002;-81
2024/02/15 15:04:57;;;;;;;0.05;0.05;;;17.80;71.00;;;;;;6158835;23;20028;-81
2024/02/15 15:12:48;;;;;;;0.10;0.10;;;17.80;71.10;;;;;;6158779;23;20032;-81
2024/02/15 15:15:14;;;;;;;0.10;0.10;;;17.70;71.30;;;;;;6158460;23;20037;-80
2024/02/15 15:17:40;;;;;;;0.00;0.00;;;17.80;71.50;;;;;;6159147;23;20052;-80
2024/02/15 15:20:08;;;;;;;0.00;0.00;;;17.80;71.70;;;;;;6158921;23;20002;-80
2024/02/15 15:22:37;;;;;;;0.10;0.10;;;17.70;71.40;;;;;;6159153;23;20104;-80
2024/02/15 15:25:03;;;;;;;0.08;0.08;;;17.60;71.70;;;;;;6159035;23;20009;-80
2024/02/15 15:27:29;;;;;;;0.10;0.10;;;17.50;71.60;;;;;;6158600;23;20016;-82
2024/02/15 15:29:55;;;;;;;0.00;0.00;;;17.40;71.60;;;;;;6158937;23;20068;-82
2024/02/15 15:32:20;;;;;;;0.10;0.10;;;17.40;71.40;;;;;;6154870;23;20358;-80
2024/02/15 15:34:46;;;;;;;0.00;0.00;;;17.40;71.60;;;;;;6158692;23;20001;-80
2024/02/15 15:37:13;;;;;;;0.00;0.00;;;17.30;70.90;;;;;;6159982;23;20001;-80
2024/02/15 15:39:39;;;;;;;0.10;0.10;;;17.30;70.70;;;;;;6159301;23;20005;-80
2024/02/15 15:42:07;;;;;;;0.00;0.00;;;17.30;71.50;;;;;;6159723;23;20033;-80
2024/02/15 15:44:33;;;;;;;0.10;0.10;;;17.30;71.90;;;;;;6160475;23;20029;-80
2024/02/15 15:46:59;;;;;;;0.00;0.00;;;17.30;71.60;;;;;;6160990;23;20492;-80
2024/02/15 15:49:25;;;;;;;0.10;0.10;;;17.20;71.90;;;;;;6161392;23;20080;-80
2024/02/15 15:51:53;;;;;;;0.10;0.10;;;17.20;72.00;;;;;;6160926;23;20001;-80
2024/02/15 15:54:19;;;;;;;0.10;0.10;;;17.20;72.10;;;;;;6160096;23;20012;-79
2024/02/15 15:56:46;;;;;;;0.08;0.08;;;17.10;72.40;;;;;;6160997;23;20385;-80
2024/02/15 15:59:13;;;;;;;0.00;0.00;;;17.00;72.40;;;;;;6160339;23;19998;-80
2024/02/15 16:01:41;;;;;;;0.08;0.08;;;17.00;72.20;;;;;;6160570;23;20010;-80
2024/02/15 16:04:06;;;;;;;0.00;0.00;;;16.90;72.40;;;;;;6184259;23;20074;-80
2024/02/15 16:06:33;;;;;;;0.10;0.10;;;16.90;72.60;;;;;;6160449;23;20008;-79
2024/02/15 16:08:59;;;;;;;0.10;0.10;;;16.90;72.70;;;;;;6161195;23;20025;-80
2024/02/15 16:11:25;;;;;;;0.10;0.10;;;17.00;72.50;;;;;;6160968;23;20001;-80
2024/02/15 16:13:51;;;;;;;0.10;0.10;;;17.00;72.30;;;;;;6158455;23;20129;-79
2024/02/15 16:16:16;;;;;;;0.10;0.10;;;16.90;72.10;;;;;;6160921;23;19997;-79
2024/02/15 16:18:42;;;;;;;0.10;0.10;;;16.80;72.30;;;;;;6160578;23;20446;-79
2024/02/15 16:21:08;;;;;;;0.00;0.00;;;16.80;72.60;;;;;;6158728;23;20093;-79
2024/02/15 16:23:34;;;;;;;0.00;0.00;;;16.80;72.50;;;;;;6160233;23;20075;-79
2024/02/15 16:25:59;;;;;;;0.00;0.00;;;16.60;73.10;;;;;;6160718;23;20002;-80
2024/02/15 16:28:25;;;;;;;0.10;0.10;;;16.50;73.10;;;;;;6159726;23;20060;-79
2024/02/15 16:30:51;;;;;;;0.10;0.10;;;16.50;73.50;;;;;;6160360;23;20040;-79
2024/02/15 16:33:16;;;;;;;0.10;0.10;;;16.50;73.30;;;;;;6134698;23;20498;-79
2024/02/15 16:35:42;;;;;;;0.10;0.10;;;16.40;73.40;;;;;;6159679;23;20001;-79
2024/02/15 16:38:08;;;;;;;0.10;0.10;;;16.40;73.90;;;;;;6160473;23;20524;-79
2024/02/15 16:40:34;;;;;;;0.10;0.10;;;16.40;74.00;;;;;;6159970;23;20021;-79
2024/02/15 16:43:00;;;;;;;0.10;0.10;;;16.40;74.20;;;;;;6134375;23;20033;-79
2024/02/15 16:45:26;;;;;;;0.00;0.00;;;16.30;74.30;;;;;;6160224;23;20073;-79
2024/02/15 16:47:55;;;;;;;0.00;0.00;;;16.30;74.10;;;;;;6159614;23;20056;-79
2024/02/15 16:50:22;;;;;;;0.10;0.10;;;16.30;74.40;;;;;;6133772;23;20009;-78
2024/02/15 16:52:49;;;;;;;0.00;0.00;;;16.20;74.40;;;;;;6158101;23;20009;-78
2024/02/15 16:55:15;;;;;;;0.00;0.00;;;16.30;74.50;;;;;;6159654;23;20052;-77
2024/02/15 16:57:41;;;;;;;0.10;0.10;;;16.20;74.40;;;;;;6159829;23;19998;-78
2024/02/15 17:00:08;;;;;;;0.10;0.10;;;16.30;74.70;;;;;;6159497;23;20507;-78
2024/02/15 17:02:40;;;;;;;0.10;0.10;;;16.20;74.70;;;;;;6132375;23;20013;-79
2024/02/15 17:05:07;;;;;;;0.03;0.03;;;16.20;74.70;;;;;;6133659;23;20005;-82
2024/02/15 17:07:33;;;;;;;0.00;0.00;;;16.20;74.80;;;;;;6133569;23;20052;-78
2024/02/15 17:10:01;;;;;;;0.03;0.03;;;16.20;75.00;;;;;;6159469;23;20033;-82
2024/02/15 17:12:28;;;;;;;0.10;0.10;;;16.10;75.10;;;;;;6160024;23;20005;-82
2024/02/15 17:14:53;;;;;;;0.10;0.10;;;16.00;75.30;;;;;;6131832;23;20009;-79
2024/02/15 17:17:19;;;;;;;0.10;0.10;;;16.00;75.60;;;;;;6157234;23;20092;-80
2024/02/15 17:19:45;;;;;;;0.00;0.00;;;15.90;75.80;;;;;;6157859;23;20005;-80
2024/02/15 17:22:11;;;;;;;0.10;0.10;;;15.80;75.90;;;;;;6159064;23;19997;-80
2024/02/15 17:24:40;;;;;;;0.10;0.10;;;15.80;76.10;;;;;;6158560;23;20413;-81
2024/02/15 17:27:06;;;;;;;0.00;0.00;;;15.80;76.20;;;;;;6156960;23;20063;-80
2024/02/15 17:29:32;;;;;;;0.03;0.03;;;15.80;76.30;;;;;;6157070;23;20088;-82
2024/02/15 17:31:58;;;;;;;0.10;0.10;;;15.70;76.50;;;;;;6150923;23;20021;-81
2024/02/15 17:34:24;;;;;;;0.00;0.00;;;15.70;76.70;;;;;;6159878;23;20005;-84
2024/02/15 17:36:50;;;;;;;0.10;0.10;;;15.70;76.70;;;;;;6159699;23;20006;-82
2024/02/15 17:39:16;;;;;;;0.10;0.10;;;15.60;76.80;;;;;;6158335;23;20002;-82
2024/02/15 17:41:42;;;;;;;0.10;0.10;;;15.60;76.90;;;;;;6159132;23;20005;-83
2024/02/15 17:44:08;;;;;;;0.10;0.10;;;15.60;77.10;;;;;;6158138;23;20005;-81
2024/02/15 17:46:34;;;;;;;0.00;0.00;;;15.50;77.10;;;;;;6157889;23;20005;-78
2024/02/15 17:49:01;;;;;;;0.03;0.03;;;15.50;77.30;;;;;;6158973;23;20006;-80
2024/02/15 17:51:27;;;;;;;0.10;0.10;;;15.50;77.40;;;;;;6156694;23;20006;-85
2024/02/15 17:53:54;;;;;;;0.00;0.00;;;15.50;77.50;;;;;;6157027;23;20016;-76
2024/02/15 17:56:24;;;;;;;0.10;0.10;;;15.50;77.60;;;;;;6157982;23;20349;-77
2024/02/15 17:58:52;;;;;;;0.00;0.00;;;15.40;77.70;;;;;;6158020;23;20001;-77
2024/02/15 18:01:18;;;;;;;0.10;0.10;;;15.30;77.80;;;;;;6158532;23;19997;-77
2024/02/15 18:03:44;;;;;;;0.03;0.03;;;15.30;77.70;;;;;;6159074;23;20012;-76
2024/02/15 18:06:10;;;;;;;0.10;0.10;;;15.30;77.70;;;;;;6158481;23;20001;-76
2024/02/15 18:08:36;;;;;;;0.10;0.10;;;15.20;77.70;;;;;;6158719;23;20009;-77
2024/02/15 18:11:02;;;;;;;0.00;0.00;;;15.20;77.80;;;;;;6157510;23;20057;-76
2024/02/15 18:13:28;;;;;;;0.10;0.10;;;15.20;77.90;;;;;;6182332;23;20016;-76
2024/02/15 18:15:55;;;;;;;0.10;0.10;;;15.20;78.00;;;;;;6158599;23;20002;-76
2024/02/15 18:18:25;;;;;;;0.10;0.10;;;15.20;78.00;;;;;;6158296;23;19997;-76
2024/02/15 18:20:51;;;;;;;0.00;0.00;;;15.20;77.90;;;;;;6157188;23;20001;-76
2024/02/15 18:23:20;;;;;;;0.00;0.00;;;15.20;77.90;;;;;;6158938;23;20002;-76
2024/02/15 18:25:46;;;;;;;0.03;0.03;;;15.10;77.90;;;;;;6156553;23;20064;-77
2024/02/15 18:28:14;;;;;;;0.10;0.10;;;15.10;77.90;;;;;;6158497;23;20016;-77
2024/02/15 18:30:47;;;;;;;0.10;0.10;;;15.10;77.80;;;;;;6156972;23;20025;-79
2024/02/15 18:33:14;;;;;;;0.10;0.10;;;15.10;77.90;;;;;;6156657;23;20437;-81
2024/02/15 18:35:44;;;;;;;0.10;0.10;;;15.10;77.90;;;;;;6158582;23;20081;-82
2024/02/15 18:38:10;;;;;;;0.03;0.03;;;15.10;78.00;;;;;;6158305;23;20001;-81
2024/02/15 18:40:37;;;;;;;0.10;0.10;;;15.00;78.00;;;;;;6158589;23;20453;-85
2024/02/15 18:43:03;;;;;;;0.10;0.10;;;15.00;78.10;;;;;;6157117;23;20485;-82
2024/02/15 18:45:30;;;;;;;0.10;0.10;;;15.00;78.10;;;;;;6157873;23;20177;-88
2024/02/15 18:47:58;;;;;;;0.10;0.10;;;14.90;78.40;;;;;;6158299;23;20055;-82
2024/02/15 18:50:24;;;;;;;0.10;0.10;;;14.90;78.40;;;;;;6157226;23;20369;-88
2024/02/15 18:52:50;;;;;;;0.10;0.10;;;14.80;78.50;;;;;;6158670;23;20005;-86
2024/02/15 18:55:16;;;;;;;0.10;0.10;;;14.90;78.50;;;;;;6155861;23;20049;-90
2024/02/15 18:57:41;;;;;;;0.10;0.10;;;14.90;78.50;;;;;;6155401;23;20005;-80
2024/02/15 19:00:14;;;;;;;0.00;0.00;;;14.80;78.60;;;;;;6144081;23;20004;-78
2024/02/15 19:02:40;;;;;;;0.10;0.10;;;14.80;78.60;;;;;;6157776;23;20437;-83
2024/02/15 19:05:14;;;;;;;0.00;0.00;;;14.80;78.70;;;;;;6160611;23;20005;-85